Terminal Aerodrome Forecast
Issued by NWS Jackson, MS

Home | Current Version | Previous Version | Text Only | Print | Product List | Glossary On
Versions: 1 2 3 4 5 6 7 8 9 10 11 12 13 14
000
FTUS44 KJAN 022357
TAFGLH
TAF
KGLH 022357Z 0300/0324 23012G20KT P6SM SCT250
     FM030300 22012KT P6SM SCT250
     FM030900 22012KT P6SM SHRA VCTS SCT030CB BKN050
     FM031400 25014G18KT P6SM VCTS SCT030CB OVC050=

USA.gov is the U.S. government's official web portal to all federal, state and local government web resources and services.